Time;durP1;ratioP1;P1;durP2;ratioP2;P2;SDS_P1;SDS_P2;PMS_P1;PMS_P2;Temp;Humidity;BMP_temperature;BMP_pressure;BME280_temperature;BME280_humidity;BME280_pressure;Samples;Min_cycle;Max_cycle;Signal;HPM_P1;HPM_P2
2022/07/30 00:00:50;;;;;;;;;;;23.00;66.00;;;;;;4996580;28;19914;-82
2022/07/30 00:03:16;;;;;;;;;;;23.10;66.10;;;;;;5013817;28;19917;-83
2022/07/30 00:05:41;;;;;;;;;;;23.10;66.10;;;;;;5014277;28;20000;-83
2022/07/30 00:08:07;;;;;;;;;;;23.10;66.20;;;;;;4996271;28;19964;-83
2022/07/30 00:10:33;;;;;;;;;;;23.10;66.30;;;;;;4996113;28;20344;-83
2022/07/30 00:12:58;;;;;;;;;;;23.10;66.20;;;;;;4996299;28;20293;-84
2022/07/30 00:15:27;;;;;;;;;;;23.10;66.20;;;;;;4996387;28;20366;-82
2022/07/30 00:17:52;;;;;;;;;;;23.10;66.20;;;;;;5014158;28;19939;-83
2022/07/30 00:20:18;;;;;;;;;;;23.20;66.30;;;;;;4989363;28;19918;-83
2022/07/30 00:22:43;;;;;;;;;;;23.20;66.30;;;;;;4974595;28;19918;-83
2022/07/30 00:25:09;;;;;;;;;;;23.20;66.20;;;;;;4974687;28;20366;-83
2022/07/30 00:27:34;;;;;;;;;;;23.20;66.10;;;;;;4974638;28;20286;-83
2022/07/30 00:30:00;;;;;;;;;;;23.10;66.00;;;;;;4972980;28;19922;-83
2022/07/30 00:32:26;;;;;;;;;;;23.10;66.00;;;;;;4989422;28;20352;-83
2022/07/30 00:34:51;;;;;;;;;;;23.10;66.20;;;;;;4977282;28;19954;-83
2022/07/30 00:37:17;;;;;;;;;;;23.10;66.20;;;;;;4978014;28;19911;-84
2022/07/30 00:39:42;;;;;;;;;;;23.10;66.20;;;;;;4978113;28;19969;-84
2022/07/30 00:42:08;;;;;;;;;;;23.20;66.30;;;;;;4977944;28;19918;-83
2022/07/30 00:44:33;;;;;;;;;;;23.20;66.20;;;;;;4977961;28;19922;-83
2022/07/30 00:46:59;;;;;;;;;;;23.20;66.10;;;;;;4978014;28;20019;-84
2022/07/30 00:49:24;;;;;;;;;;;23.20;66.20;;;;;;4977730;28;19914;-84
2022/07/30 00:51:50;;;;;;;;;;;23.20;66.10;;;;;;4976475;28;20016;-83
2022/07/30 00:54:16;;;;;;;;;;;23.20;66.10;;;;;;4976638;28;20390;-83
2022/07/30 00:56:41;;;;;;;;;;;23.20;66.10;;;;;;4976577;28;19990;-83
2022/07/30 00:59:07;;;;;;;;;;;23.20;66.20;;;;;;4992329;28;19917;-84
2022/07/30 01:01:33;;;;;;;;;;;23.20;66.10;;;;;;4976485;28;19914;-84
2022/07/30 01:03:58;;;;;;;;;;;23.10;65.90;;;;;;4977924;28;20274;-83
2022/07/30 01:06:24;;;;;;;;;;;23.10;65.80;;;;;;4976294;28;19918;-84
2022/07/30 01:08:49;;;;;;;;;;;23.00;65.90;;;;;;4975866;28;19957;-84
2022/07/30 01:11:15;;;;;;;;;;;23.00;65.90;;;;;;4977920;28;19945;-84
2022/07/30 01:13:41;;;;;;;;;;;23.00;65.90;;;;;;4992442;28;19997;-84
2022/07/30 01:16:07;;;;;;;;;;;23.00;65.90;;;;;;4976261;28;19924;-84
2022/07/30 01:21:20;;;;;;;;;;;23.00;66.00;;;;;;4977909;28;19925;-83
2022/07/30 01:23:45;;;;;;;;;;;22.90;66.10;;;;;;4992241;28;20264;-84
2022/07/30 01:26:13;;;;;;;;;;;22.90;66.10;;;;;;4992344;28;19925;-83
2022/07/30 01:28:41;;;;;;;;;;;22.80;66.10;;;;;;4992247;28;19914;-83
2022/07/30 01:31:06;;;;;;;;;;;22.80;66.20;;;;;;4992102;28;20008;-83
2022/07/30 01:33:33;;;;;;;;;;;22.80;66.10;;;;;;4976806;28;19960;-83
2022/07/30 01:36:00;;;;;;;;;;;22.90;66.10;;;;;;4977193;28;19969;-83
2022/07/30 01:38:26;;;;;;;;;;;22.80;66.10;;;;;;4991792;28;19914;-83
2022/07/30 01:40:53;;;;;;;;;;;22.80;66.10;;;;;;4991925;28;19941;-83
2022/07/30 01:43:19;;;;;;;;;;;22.80;66.10;;;;;;4976565;28;19977;-83
2022/07/30 01:45:45;;;;;;;;;;;22.80;66.10;;;;;;4976305;28;19922;-83
2022/07/30 01:48:12;;;;;;;;;;;22.80;66.20;;;;;;4991376;28;20374;-83
2022/07/30 01:50:41;;;;;;;;;;;22.90;66.20;;;;;;4977028;28;19938;-84
2022/07/30 01:53:07;;;;;;;;;;;22.90;66.10;;;;;;4976763;28;20374;-84
2022/07/30 01:55:37;;;;;;;;;;;22.90;66.10;;;;;;4977219;28;19918;-83
2022/07/30 01:58:04;;;;;;;;;;;22.90;66.30;;;;;;4991288;28;19917;-84
2022/07/30 02:00:32;;;;;;;;;;;22.90;66.30;;;;;;4991667;28;20016;-83
2022/07/30 02:02:57;;;;;;;;;;;23.00;66.20;;;;;;4991612;28;19918;-84
2022/07/30 02:05:23;;;;;;;;;;;22.90;66.20;;;;;;4976254;28;19927;-84
2022/07/30 02:07:55;;;;;;;;;;;22.90;66.20;;;;;;4975109;28;20375;-84
2022/07/30 02:10:35;;;;;;;;;;;22.90;66.30;;;;;;4991722;28;20402;-84
2022/07/30 02:13:02;;;;;;;;;;;22.90;66.30;;;;;;4991627;28;19936;-84
2022/07/30 02:15:31;;;;;;;;;;;22.90;66.20;;;;;;4976880;28;19925;-83
2022/07/30 02:18:12;;;;;;;;;;;22.90;66.20;;;;;;4976381;28;20074;-84
2022/07/30 02:20:39;;;;;;;;;;;22.90;66.20;;;;;;4990936;28;19965;-84
2022/07/30 02:23:07;;;;;;;;;;;22.90;66.20;;;;;;4976707;28;19997;-84
2022/07/30 02:25:33;;;;;;;;;;;22.90;66.10;;;;;;4991187;28;19918;-84
2022/07/30 02:28:01;;;;;;;;;;;22.80;66.10;;;;;;4975353;28;19964;-84
2022/07/30 02:30:30;;;;;;;;;;;22.80;66.10;;;;;;4977139;28;19929;-84
2022/07/30 02:33:00;;;;;;;;;;;22.80;66.30;;;;;;4976707;28;19910;-83
2022/07/30 02:35:26;;;;;;;;;;;22.80;66.30;;;;;;4974787;28;20021;-84
2022/07/30 02:37:53;;;;;;;;;;;22.80;66.30;;;;;;4990788;28;20394;-84
2022/07/30 02:40:19;;;;;;;;;;;22.80;66.30;;;;;;4991119;28;19918;-84
2022/07/30 02:42:46;;;;;;;;;;;22.80;66.10;;;;;;4975680;28;19910;-84
2022/07/30 02:45:12;;;;;;;;;;;22.80;66.00;;;;;;4975947;28;19922;-84
2022/07/30 02:47:38;;;;;;;;;;;22.80;66.10;;;;;;4975774;28;20204;-84
2022/07/30 02:50:04;;;;;;;;;;;22.90;66.20;;;;;;4975630;28;20365;-84
2022/07/30 02:52:31;;;;;;;;;;;22.90;66.00;;;;;;4975730;28;19910;-84
2022/07/30 02:54:58;;;;;;;;;;;22.80;66.00;;;;;;4975044;28;20029;-84
2022/07/30 02:57:24;;;;;;;;;;;22.80;65.90;;;;;;4990135;28;19918;-84
2022/07/30 02:59:50;;;;;;;;;;;22.80;65.90;;;;;;4975718;28;19918;-85
2022/07/30 03:02:16;;;;;;;;;;;22.80;65.90;;;;;;4975492;28;20370;-83
2022/07/30 03:04:42;;;;;;;;;;;22.70;66.00;;;;;;4973868;28;19922;-84
2022/07/30 03:07:08;;;;;;;;;;;22.70;66.00;;;;;;4975277;28;19920;-84
2022/07/30 03:09:34;;;;;;;;;;;22.70;66.00;;;;;;4975266;28;19922;-84
2022/07/30 03:12:00;;;;;;;;;;;22.70;66.00;;;;;;4990451;28;19914;-84
2022/07/30 03:14:26;;;;;;;;;;;22.70;65.90;;;;;;4990425;28;19914;-84
2022/07/30 03:16:54;;;;;;;;;;;22.70;66.00;;;;;;4975289;28;19960;-84
2022/07/30 03:19:21;;;;;;;;;;;22.70;66.10;;;;;;4990071;28;20013;-84
2022/07/30 03:21:47;;;;;;;;;;;22.70;66.10;;;;;;4975326;28;19919;-84
2022/07/30 03:24:13;;;;;;;;;;;22.70;66.10;;;;;;4975461;28;19993;-84
2022/07/30 03:26:40;;;;;;;;;;;22.70;66.10;;;;;;4990363;28;19910;-84
2022/07/30 03:29:07;;;;;;;;;;;22.70;66.00;;;;;;4990084;28;20008;-84
2022/07/30 03:31:33;;;;;;;;;;;22.70;65.90;;;;;;4973789;28;19925;-84
2022/07/30 03:33:59;;;;;;;;;;;22.70;65.80;;;;;;4989841;28;19961;-84
2022/07/30 03:36:25;;;;;;;;;;;22.60;65.80;;;;;;4974828;28;20347;-84
2022/07/30 03:38:51;;;;;;;;;;;22.60;65.80;;;;;;4973887;28;19972;-84
2022/07/30 03:41:17;;;;;;;;;;;22.60;65.80;;;;;;4974995;28;19968;-85
2022/07/30 03:43:42;;;;;;;;;;;22.60;65.80;;;;;;4989596;28;19914;-84
2022/07/30 03:46:09;;;;;;;;;;;22.60;65.90;;;;;;4975491;28;19926;-84
2022/07/30 03:48:35;;;;;;;;;;;22.70;66.00;;;;;;4975023;28;19945;-83
2022/07/30 03:51:05;;;;;;;;;;;22.70;65.90;;;;;;4975474;28;19914;-84
2022/07/30 03:53:31;;;;;;;;;;;22.70;65.80;;;;;;4989658;28;19914;-83
2022/07/30 03:55:57;;;;;;;;;;;22.70;65.90;;;;;;4989716;28;19995;-84
2022/07/30 03:58:22;;;;;;;;;;;22.70;65.90;;;;;;4974791;28;20568;-84
2022/07/30 04:00:49;;;;;;;;;;;22.70;65.90;;;;;;4973738;28;19921;-83
2022/07/30 04:03:27;;;;;;;;;;;22.70;65.90;;;;;;4974911;28;19914;-84
2022/07/30 04:05:52;;;;;;;;;;;22.80;65.90;;;;;;4989287;28;20417;-84
2022/07/30 04:08:18;;;;;;;;;;;22.80;65.90;;;;;;4973621;28;20008;-84
2022/07/30 04:10:43;;;;;;;;;;;22.80;65.90;;;;;;4978518;28;20271;-84
2022/07/30 04:13:09;;;;;;;;;;;22.80;65.90;;;;;;4978537;28;19913;-84
2022/07/30 04:15:40;;;;;;;;;;;22.90;65.80;;;;;;4978931;28;19918;-84
2022/07/30 04:18:07;;;;;;;;;;;22.80;65.80;;;;;;4978708;28;19957;-84
2022/07/30 04:20:39;;;;;;;;;;;22.80;65.90;;;;;;4996637;28;19918;-84
2022/07/30 04:23:04;;;;;;;;;;;22.80;65.80;;;;;;4980248;28;19917;-84
2022/07/30 04:25:30;;;;;;;;;;;22.80;65.80;;;;;;4998233;28;20422;-84
2022/07/30 04:27:56;;;;;;;;;;;22.80;65.70;;;;;;4997642;28;19985;-84
2022/07/30 04:30:21;;;;;;;;;;;22.80;65.70;;;;;;4980187;28;19917;-85
2022/07/30 04:32:47;;;;;;;;;;;22.80;65.60;;;;;;4998000;28;19910;-84
2022/07/30 04:35:12;;;;;;;;;;;22.80;65.70;;;;;;4997424;28;19922;-84
2022/07/30 04:37:38;;;;;;;;;;;22.90;65.70;;;;;;4997911;28;19910;-84
2022/07/30 04:40:04;;;;;;;;;;;22.90;65.70;;;;;;4997806;28;19918;-84
2022/07/30 04:42:29;;;;;;;;;;;22.90;65.60;;;;;;4997276;28;19913;-84
2022/07/30 04:44:55;;;;;;;;;;;22.90;65.60;;;;;;4997655;28;19918;-84
2022/07/30 04:47:21;;;;;;;;;;;23.00;65.60;;;;;;4997604;28;19909;-84
2022/07/30 04:49:47;;;;;;;;;;;23.00;65.60;;;;;;4997408;28;19929;-85
2022/07/30 04:52:13;;;;;;;;;;;23.00;65.60;;;;;;4979795;28;19913;-84
2022/07/30 04:54:50;;;;;;;;;;;23.00;65.70;;;;;;4997614;28;19918;-84
2022/07/30 04:57:16;;;;;;;;;;;22.90;65.70;;;;;;4997378;28;20030;-84
2022/07/30 04:59:42;;;;;;;;;;;23.00;65.70;;;;;;4979922;28;20277;-84
2022/07/30 05:02:09;;;;;;;;;;;23.00;65.60;;;;;;4979555;28;19992;-84
2022/07/30 05:04:35;;;;;;;;;;;23.10;65.70;;;;;;4997267;28;19953;-84
2022/07/30 05:07:01;;;;;;;;;;;23.10;65.70;;;;;;4997643;28;20293;-84
2022/07/30 05:09:27;;;;;;;;;;;23.10;65.70;;;;;;4995830;28;19930;-85
2022/07/30 05:11:53;;;;;;;;;;;23.20;65.80;;;;;;4979469;28;19917;-84
2022/07/30 05:14:20;;;;;;;;;;;23.20;65.70;;;;;;4997236;28;20350;-84
2022/07/30 05:16:45;;;;;;;;;;;23.20;65.60;;;;;;4997035;28;19910;-84
2022/07/30 05:19:11;;;;;;;;;;;23.30;65.80;;;;;;4979540;28;20012;-84
2022/07/30 05:21:36;;;;;;;;;;;23.30;65.80;;;;;;4995491;28;20355;-84
2022/07/30 05:24:02;;;;;;;;;;;23.30;65.80;;;;;;4996777;28;19932;-84
2022/07/30 05:26:27;;;;;;;;;;;23.30;65.90;;;;;;4997236;28;20311;-84
2022/07/30 05:28:53;;;;;;;;;;;23.30;66.00;;;;;;4979219;28;19917;-84
2022/07/30 05:31:18;;;;;;;;;;;23.50;66.10;;;;;;4979335;28;19918;-84
2022/07/30 05:33:44;;;;;;;;;;;23.50;66.20;;;;;;4979101;28;19972;-84
2022/07/30 05:36:09;;;;;;;;;;;23.60;66.10;;;;;;4997245;28;19955;-84
2022/07/30 05:38:35;;;;;;;;;;;23.70;66.00;;;;;;4996761;28;19916;-84
2022/07/30 05:41:00;;;;;;;;;;;23.70;66.00;;;;;;4996034;28;19925;-84
2022/07/30 05:43:26;;;;;;;;;;;23.70;65.90;;;;;;4996574;28;19921;-85
2022/07/30 05:45:51;;;;;;;;;;;23.60;66.00;;;;;;4996687;28;19922;-84
2022/07/30 05:48:17;;;;;;;;;;;23.60;66.10;;;;;;4978788;28;19967;-84
2022/07/30 05:50:42;;;;;;;;;;;23.60;66.20;;;;;;4994660;28;19918;-84
2022/07/30 05:53:08;;;;;;;;;;;23.70;66.20;;;;;;4996384;28;19909;-84
2022/07/30 05:55:33;;;;;;;;;;;23.70;66.40;;;;;;4978508;28;19922;-84
2022/07/30 05:57:59;;;;;;;;;;;23.70;66.50;;;;;;4996132;28;19936;-84
2022/07/30 06:00:24;;;;;;;;;;;23.70;66.80;;;;;;4996229;28;19920;-84
2022/07/30 06:02:49;;;;;;;;;;;23.90;67.60;;;;;;4978620;28;19914;-84
2022/07/30 06:05:15;;;;;;;;;;;24.20;68.80;;;;;;4994730;28;19924;-84
2022/07/30 06:07:40;;;;;;;;;;;24.70;69.60;;;;;;4996088;28;19918;-83
2022/07/30 06:10:06;;;;;;;;;;;25.20;69.80;;;;;;4996778;28;20255;-93
2022/07/30 06:12:31;;;;;;;;;;;25.60;69.60;;;;;;4998693;28;19937;-93
2022/07/30 06:14:57;;;;;;;;;;;25.80;68.90;;;;;;4998665;28;19922;-92
2022/07/30 06:17:23;;;;;;;;;;;25.90;68.20;;;;;;4982036;28;20008;-91
2022/07/30 06:19:49;;;;;;;;;;;26.00;67.80;;;;;;4973578;28;19964;-92
2022/07/30 06:22:15;;;;;;;;;;;26.10;67.90;;;;;;4979994;28;19911;-91
2022/07/30 06:24:40;;;;;;;;;;;26.20;67.70;;;;;;4994799;28;20012;-92
2022/07/30 06:27:06;;;;;;;;;;;26.30;68.30;;;;;;4980358;28;19917;-93
2022/07/30 06:29:32;;;;;;;;;;;26.70;69.30;;;;;;4979910;28;19922;-93
2022/07/30 06:31:57;;;;;;;;;;;27.00;69.30;;;;;;4995170;28;20005;-92
2022/07/30 06:34:23;;;;;;;;;;;27.30;68.90;;;;;;4962081;28;19921;-93
2022/07/30 06:36:48;;;;;;;;;;;27.40;68.70;;;;;;4993215;28;19949;-94
2022/07/30 06:39:15;;;;;;;;;;;27.60;68.50;;;;;;4998398;28;19910;-92
2022/07/30 06:41:40;;;;;;;;;;;27.80;68.60;;;;;;4998745;28;19910;-94
2022/07/30 06:44:05;;;;;;;;;;;28.00;68.40;;;;;;4998759;28;20251;-93
2022/07/30 06:46:31;;;;;;;;;;;28.10;68.10;;;;;;4997809;28;19918;-93
2022/07/30 06:48:56;;;;;;;;;;;28.10;68.00;;;;;;4997034;28;19922;-93
2022/07/30 06:51:22;;;;;;;;;;;28.20;67.80;;;;;;4998983;28;19918;-92
2022/07/30 06:53:47;;;;;;;;;;;28.40;68.50;;;;;;5000617;28;19910;-92
2022/07/30 06:56:13;;;;;;;;;;;28.90;69.30;;;;;;4981570;28;20318;-91
2022/07/30 06:58:39;;;;;;;;;;;29.30;69.60;;;;;;4998973;28;19917;-93
2022/07/30 07:01:04;;;;;;;;;;;29.80;69.00;;;;;;4983061;28;19929;-90
2022/07/30 07:03:30;;;;;;;;;;;30.40;68.90;;;;;;4998340;28;20374;-91
2022/07/30 07:05:55;;;;;;;;;;;31.00;68.70;;;;;;4994324;28;20433;-90
2022/07/30 07:08:21;;;;;;;;;;;31.60;68.50;;;;;;4973753;28;19918;-91
2022/07/30 07:10:46;;;;;;;;;;;32.10;67.60;;;;;;4976511;28;19919;-89
2022/07/30 07:13:12;;;;;;;;;;;32.70;67.60;;;;;;4975298;28;19916;-92
2022/07/30 07:15:38;;;;;;;;;;;33.30;67.30;;;;;;4992671;28;19965;-90
2022/07/30 07:18:04;;;;;;;;;;;33.80;67.70;;;;;;4984386;28;19921;-93
2022/07/30 07:20:30;;;;;;;;;;;34.30;66.30;;;;;;4964583;28;20005;-92
2022/07/30 07:22:55;;;;;;;;;;;34.80;67.40;;;;;;4975051;28;19960;-89
2022/07/30 07:25:20;;;;;;;;;;;35.30;67.90;;;;;;4981944;28;19918;-92
2022/07/30 07:27:46;;;;;;;;;;;36.00;68.20;;;;;;4980882;28;19949;-91
2022/07/30 07:30:11;;;;;;;;;;;36.50;67.70;;;;;;5000520;28;19928;-91
2022/07/30 07:32:37;;;;;;;;;;;37.10;67.90;;;;;;5003975;28;19910;-88
2022/07/30 07:35:03;;;;;;;;;;;37.70;65.90;;;;;;4997953;28;19918;-91
2022/07/30 07:37:28;;;;;;;;;;;38.10;64.20;;;;;;4981148;28;19910;-91
2022/07/30 07:39:54;;;;;;;;;;;38.60;63.40;;;;;;4997732;28;19918;-90
2022/07/30 07:42:20;;;;;;;;;;;39.00;62.20;;;;;;4981049;28;19910;-91
2022/07/30 07:44:46;;;;;;;;;;;39.40;59.60;;;;;;4996975;28;19922;-88
2022/07/30 07:47:11;;;;;;;;;;;39.60;57.30;;;;;;4998916;28;19909;-92
2022/07/30 07:49:37;;;;;;;;;;;39.80;56.40;;;;;;4998974;28;19985;-90
2022/07/30 07:52:02;;;;;;;;;;;40.10;54.60;;;;;;4998165;28;19918;-92
2022/07/30 07:54:28;;;;;;;;;;;40.40;54.10;;;;;;4980595;28;19918;-93
2022/07/30 07:56:56;;;;;;;;;;;40.70;51.40;;;;;;4998173;28;19921;-92
2022/07/30 07:59:22;;;;;;;;;;;41.10;51.80;;;;;;4988538;28;19917;-93
2022/07/30 08:01:47;;;;;;;;;;;41.50;49.50;;;;;;4997899;28;19910;-93
2022/07/30 08:04:13;;;;;;;;;;;41.80;48.20;;;;;;4981563;28;19913;-92
2022/07/30 08:06:39;;;;;;;;;;;42.20;46.00;;;;;;4994539;28;19925;-90
2022/07/30 08:09:04;;;;;;;;;;;42.50;45.30;;;;;;4995296;28;19929;-94
2022/07/30 08:11:31;;;;;;;;;;;42.90;44.60;;;;;;4980615;28;20359;-93
2022/07/30 08:13:57;;;;;;;;;;;43.30;43.90;;;;;;4977142;28;19920;-93
2022/07/30 08:16:22;;;;;;;;;;;43.70;42.80;;;;;;4993558;28;19917;-91
2022/07/30 08:18:48;;;;;;;;;;;44.10;40.20;;;;;;4986752;28;19968;-92
2022/07/30 08:21:14;;;;;;;;;;;44.40;38.90;;;;;;4986394;28;19941;-93
2022/07/30 08:23:39;;;;;;;;;;;44.80;37.40;;;;;;4977727;28;19918;-92
2022/07/30 08:26:05;;;;;;;;;;;45.10;36.00;;;;;;4994981;28;20067;-92
2022/07/30 08:28:31;;;;;;;;;;;45.20;32.20;;;;;;4994832;28;19921;-93
2022/07/30 08:30:56;;;;;;;;;;;45.30;33.30;;;;;;4977847;28;19921;-92
2022/07/30 08:33:22;;;;;;;;;;;45.40;32.80;;;;;;4993818;28;20374;-92
2022/07/30 08:35:47;;;;;;;;;;;45.50;31.60;;;;;;4979779;28;19918;-91
2022/07/30 08:38:13;;;;;;;;;;;45.70;31.00;;;;;;4975953;28;20434;-92
2022/07/30 08:40:40;;;;;;;;;;;45.90;30.30;;;;;;4976245;28;20421;-93
2022/07/30 08:43:06;;;;;;;;;;;45.80;29.80;;;;;;4992605;28;19917;-93
2022/07/30 08:45:32;;;;;;;;;;;45.40;29.00;;;;;;4993404;28;19917;-91
2022/07/30 08:48:04;;;;;;;;;;;44.90;29.00;;;;;;4994409;28;20008;-92
2022/07/30 08:50:30;;;;;;;;;;;44.50;28.90;;;;;;4976243;28;20275;-92
2022/07/30 08:52:56;;;;;;;;;;;44.20;28.80;;;;;;5002192;28;19928;-93
2022/07/30 08:55:21;;;;;;;;;;;44.20;28.80;;;;;;4985699;28;20361;-93
2022/07/30 08:57:47;;;;;;;;;;;44.20;28.40;;;;;;4982473;28;19918;-90
2022/07/30 09:00:15;;;;;;;;;;;44.30;28.10;;;;;;4979710;28;19925;-92
2022/07/30 09:02:41;;;;;;;;;;;44.30;27.60;;;;;;4986681;28;19965;-92
2022/07/30 09:05:06;;;;;;;;;;;44.50;27.20;;;;;;4978872;28;19922;-89
2022/07/30 09:07:32;;;;;;;;;;;44.70;27.50;;;;;;4992743;28;20386;-93
2022/07/30 09:09:59;;;;;;;;;;;45.00;26.60;;;;;;4999455;28;19918;-91
2022/07/30 09:12:34;;;;;;;;;;;45.20;26.50;;;;;;4980114;28;19917;-93
2022/07/30 09:15:08;;;;;;;;;;;45.40;25.80;;;;;;4996507;28;19914;-90
2022/07/30 09:17:47;;;;;;;;;;;45.60;25.30;;;;;;4992247;28;19961;-92
2022/07/30 09:20:12;;;;;;;;;;;45.80;25.20;;;;;;4997215;28;20414;-92
2022/07/30 09:22:41;;;;;;;;;;;46.10;24.20;;;;;;4996712;28;19972;-92
2022/07/30 09:25:07;;;;;;;;;;;46.30;24.30;;;;;;4978938;28;20346;-89
2022/07/30 09:27:44;;;;;;;;;;;46.50;24.00;;;;;;4978570;28;19917;-91
2022/07/30 09:30:10;;;;;;;;;;;46.70;23.40;;;;;;4997408;28;19954;-93
2022/07/30 09:32:47;;;;;;;;;;;46.80;22.90;;;;;;4996568;28;19921;-91
2022/07/30 09:35:13;;;;;;;;;;;47.00;23.00;;;;;;4997417;28;19967;-90
2022/07/30 09:37:39;;;;;;;;;;;47.20;22.70;;;;;;4978935;28;20048;-92
2022/07/30 09:40:14;;;;;;;;;;;47.30;22.20;;;;;;4994897;28;19949;-93
2022/07/30 09:42:40;;;;;;;;;;;47.30;22.10;;;;;;4975869;28;19977;-93
2022/07/30 09:45:09;;;;;;;;;;;47.30;22.10;;;;;;4961872;28;20368;-91
2022/07/30 09:47:39;;;;;;;;;;;47.50;21.90;;;;;;4988932;28;20722;-91
2022/07/30 09:50:04;;;;;;;;;;;47.60;21.40;;;;;;4959337;28;19922;-92
2022/07/30 09:52:30;;;;;;;;;;;47.70;21.20;;;;;;4989557;28;19918;-91
2022/07/30 09:54:55;;;;;;;;;;;47.80;21.30;;;;;;4996243;28;19914;-92
2022/07/30 09:57:21;;;;;;;;;;;48.10;21.40;;;;;;4992171;28;19918;-90
2022/07/30 09:59:46;;;;;;;;;;;48.30;21.10;;;;;;4991374;28;19996;-91
2022/07/30 10:02:12;;;;;;;;;;;48.60;20.60;;;;;;4978147;28;20314;-92
2022/07/30 10:04:37;;;;;;;;;;;48.70;19.80;;;;;;4996779;28;19914;-92
2022/07/30 10:07:03;;;;;;;;;;;48.30;19.90;;;;;;5005375;28;19929;-92
2022/07/30 10:09:29;;;;;;;;;;;47.60;20.10;;;;;;4995853;28;20059;-93
2022/07/30 10:11:56;;;;;;;;;;;47.30;20.40;;;;;;4980682;28;20012;-92
2022/07/30 10:14:23;;;;;;;;;;;47.10;20.70;;;;;;5016176;28;20709;-91
2022/07/30 10:16:49;;;;;;;;;;;46.70;20.70;;;;;;4998346;28;19918;-92
2022/07/30 10:19:15;;;;;;;;;;;46.20;21.00;;;;;;4996064;28;20032;-94
2022/07/30 10:21:41;;;;;;;;;;;46.30;21.00;;;;;;4996123;28;19918;-93
2022/07/30 10:24:07;;;;;;;;;;;46.40;20.90;;;;;;4977975;28;19918;-94
2022/07/30 10:26:36;;;;;;;;;;;46.20;20.30;;;;;;5007220;28;19918;-95
2022/07/30 10:29:02;;;;;;;;;;;45.70;20.30;;;;;;4978129;28;19918;-93
2022/07/30 10:31:28;;;;;;;;;;;45.10;20.40;;;;;;4977395;28;19921;-94
2022/07/30 10:33:55;;;;;;;;;;;44.90;20.80;;;;;;4995228;28;19922;-92
2022/07/30 10:36:21;;;;;;;;;;;44.80;20.90;;;;;;4991308;28;19918;-93
2022/07/30 10:38:46;;;;;;;;;;;45.00;21.10;;;;;;4981181;28;19925;-91
2022/07/30 10:41:28;;;;;;;;;;;45.50;21.10;;;;;;4977747;28;20267;-89
2022/07/30 10:43:59;;;;;;;;;;;46.00;21.00;;;;;;5012603;28;19921;-91
2022/07/30 10:46:34;;;;;;;;;;;46.00;20.60;;;;;;4999322;28;19918;-90
2022/07/30 10:49:07;;;;;;;;;;;46.10;20.50;;;;;;4975739;28;19922;-92
2022/07/30 10:51:47;;;;;;;;;;;46.30;20.30;;;;;;4993839;28;20350;-92
2022/07/30 10:54:31;;;;;;;;;;;45.90;20.30;;;;;;4974128;28;19918;-90
2022/07/30 10:57:04;;;;;;;;;;;45.40;20.70;;;;;;5004337;28;19917;-91
2022/07/30 10:59:50;;;;;;;;;;;44.70;20.60;;;;;;4976958;28;20043;-92
2022/07/30 11:02:16;;;;;;;;;;;43.80;20.70;;;;;;4973899;28;19922;-92
2022/07/30 11:04:41;;;;;;;;;;;43.00;21.70;;;;;;4957887;28;19918;-92
2022/07/30 11:07:31;;;;;;;;;;;42.80;22.00;;;;;;4991095;28;19922;-92
2022/07/30 11:09:59;;;;;;;;;;;43.10;22.10;;;;;;4996198;28;20400;-91
2022/07/30 11:12:40;;;;;;;;;;;43.80;21.90;;;;;;4994954;28;19921;-89
2022/07/30 11:15:06;;;;;;;;;;;44.20;21.90;;;;;;4986989;28;19928;-90
2022/07/30 11:18:07;;;;;;;;;;;44.50;21.60;;;;;;4993840;28;19917;-90
2022/07/30 11:20:34;;;;;;;;;;;44.40;21.60;;;;;;4907711;29;20740;-90
2022/07/30 11:23:08;;;;;;;;;;;44.50;21.60;;;;;;4975182;28;20290;-92
2022/07/30 11:25:33;;;;;;;;;;;44.80;21.40;;;;;;4979216;28;19956;-90
2022/07/30 11:28:02;;;;;;;;;;;45.40;21.10;;;;;;4992511;28;20024;-90
2022/07/30 11:30:27;;;;;;;;;;;45.80;20.50;;;;;;4955660;28;20016;-91
2022/07/30 11:32:53;;;;;;;;;;;46.30;20.30;;;;;;4989022;28;20015;-95
2022/07/30 11:35:26;;;;;;;;;;;46.80;19.70;;;;;;4995157;28;19925;-91
2022/07/30 11:37:57;;;;;;;;;;;47.20;19.10;;;;;;4976278;28;19918;-91
2022/07/30 11:40:24;;;;;;;;;;;47.50;19.10;;;;;;4993079;28;20263;-91
2022/07/30 11:42:50;;;;;;;;;;;47.80;18.90;;;;;;4976411;28;19917;-92
2022/07/30 11:45:16;;;;;;;;;;;48.20;17.90;;;;;;4993981;28;19941;-91
2022/07/30 11:47:42;;;;;;;;;;;48.50;17.90;;;;;;4992883;28;19914;-91
2022/07/30 11:50:17;;;;;;;;;;;48.40;17.70;;;;;;4994614;28;19945;-92
2022/07/30 11:52:47;;;;;;;;;;;48.20;17.80;;;;;;4961009;28;19953;-93
2022/07/30 11:55:20;;;;;;;;;;;47.70;18.10;;;;;;4995428;28;19940;-90
2022/07/30 11:57:45;;;;;;;;;;;47.40;17.60;;;;;;4978132;28;19921;-90
2022/07/30 12:00:11;;;;;;;;;;;47.50;18.00;;;;;;4993219;28;19922;-91
2022/07/30 12:02:37;;;;;;;;;;;47.70;18.10;;;;;;4993898;28;20000;-91
2022/07/30 12:05:03;;;;;;;;;;;48.00;18.20;;;;;;4974619;28;19952;-93
2022/07/30 12:07:29;;;;;;;;;;;47.70;17.70;;;;;;4975703;28;19965;-93
2022/07/30 12:10:10;;;;;;;;;;;47.00;17.70;;;;;;4975855;28;19932;-90
2022/07/30 12:12:36;;;;;;;;;;;46.30;17.60;;;;;;4974086;28;19910;-93
2022/07/30 12:15:01;;;;;;;;;;;45.30;18.00;;;;;;4996115;28;20037;-92
2022/07/30 12:17:40;;;;;;;;;;;44.50;18.40;;;;;;4993894;28;19964;-92
2022/07/30 12:20:13;;;;;;;;;;;44.00;19.00;;;;;;4976768;28;19948;-92
2022/07/30 12:22:39;;;;;;;;;;;44.30;19.00;;;;;;4975728;28;20016;-92
2022/07/30 12:25:07;;;;;;;;;;;44.60;19.00;;;;;;4975423;28;20012;-92
2022/07/30 12:27:33;;;;;;;;;;;45.00;18.80;;;;;;4994198;28;19951;-93
2022/07/30 12:29:59;;;;;;;;;;;45.40;18.50;;;;;;4978246;28;20024;-92
2022/07/30 12:32:24;;;;;;;;;;;45.80;18.60;;;;;;4998487;28;19958;-92
2022/07/30 12:34:54;;;;;;;;;;;46.30;18.50;;;;;;4997265;28;19913;-89
2022/07/30 12:37:20;;;;;;;;;;;45.80;18.40;;;;;;4975828;28;20360;-91
2022/07/30 12:39:45;;;;;;;;;;;45.00;18.70;;;;;;4978650;28;19997;-91
2022/07/30 12:42:17;;;;;;;;;;;44.20;18.90;;;;;;4996439;28;19922;-92
2022/07/30 12:44:48;;;;;;;;;;;44.20;19.10;;;;;;4979080;28;19913;-92
2022/07/30 12:47:20;;;;;;;;;;;44.50;18.60;;;;;;5000373;28;19930;-90
2022/07/30 12:49:46;;;;;;;;;;;43.90;18.50;;;;;;4976790;28;19925;-90
2022/07/30 12:52:24;;;;;;;;;;;43.00;19.00;;;;;;4979215;28;19925;-93
2022/07/30 12:54:59;;;;;;;;;;;42.10;19.60;;;;;;4994400;28;20382;-88
2022/07/30 12:57:25;;;;;;;;;;;41.30;20.10;;;;;;5009557;28;19922;-92
2022/07/30 13:00:02;;;;;;;;;;;41.10;20.70;;;;;;4996348;28;20008;-91
2022/07/30 13:02:32;;;;;;;;;;;41.30;20.70;;;;;;4976659;28;19922;-91
2022/07/30 13:04:57;;;;;;;;;;;40.90;21.00;;;;;;4995064;28;20362;-89
2022/07/30 13:07:23;;;;;;;;;;;40.40;21.30;;;;;;4981520;28;19928;-93
2022/07/30 13:10:05;;;;;;;;;;;40.00;21.80;;;;;;4978497;28;19918;-90
2022/07/30 13:12:30;;;;;;;;;;;39.60;22.20;;;;;;4997285;28;19921;-91
2022/07/30 13:14:55;;;;;;;;;;;39.20;22.60;;;;;;4997722;28;19934;-91
2022/07/30 13:17:21;;;;;;;;;;;38.90;22.90;;;;;;4998242;28;19924;-92
2022/07/30 13:19:46;;;;;;;;;;;38.70;23.20;;;;;;5017911;28;19952;-93
2022/07/30 13:22:12;;;;;;;;;;;38.40;23.40;;;;;;4998644;28;19921;-92
2022/07/30 13:24:38;;;;;;;;;;;38.30;23.70;;;;;;4998016;28;19921;-92
2022/07/30 13:27:03;;;;;;;;;;;38.00;23.90;;;;;;5016442;28;19925;-91
2022/07/30 13:29:29;;;;;;;;;;;38.00;24.10;;;;;;4998168;28;20008;-93
2022/07/30 13:31:54;;;;;;;;;;;37.80;24.20;;;;;;4998804;28;19922;-92
2022/07/30 13:34:19;;;;;;;;;;;37.80;24.40;;;;;;5014573;28;19957;-92
2022/07/30 13:36:45;;;;;;;;;;;37.70;24.60;;;;;;5016078;28;19925;-92
2022/07/30 13:39:11;;;;;;;;;;;37.50;24.70;;;;;;5016762;28;19991;-93
2022/07/30 13:41:36;;;;;;;;;;;37.40;24.90;;;;;;5016020;28;19951;-91
2022/07/30 13:44:02;;;;;;;;;;;37.30;25.00;;;;;;4983313;28;19921;-92
2022/07/30 13:46:28;;;;;;;;;;;37.20;25.10;;;;;;5018075;28;19972;-92
2022/07/30 13:48:53;;;;;;;;;;;37.00;25.10;;;;;;5016557;28;20278;-92
2022/07/30 13:51:19;;;;;;;;;;;36.90;25.20;;;;;;4993690;28;19973;-93
2022/07/30 13:53:44;;;;;;;;;;;36.80;25.40;;;;;;4995026;28;19926;-92
2022/07/30 13:56:10;;;;;;;;;;;36.80;25.50;;;;;;4971337;28;20004;-93
2022/07/30 13:58:35;;;;;;;;;;;36.70;25.60;;;;;;4974388;28;20578;-92
2022/07/30 14:01:01;;;;;;;;;;;36.70;25.60;;;;;;4994619;28;20052;-92
2022/07/30 14:03:26;;;;;;;;;;;36.70;25.70;;;;;;4978496;28;19958;-90
2022/07/30 14:05:52;;;;;;;;;;;36.70;25.70;;;;;;4995893;28;19914;-90
2022/07/30 14:08:18;;;;;;;;;;;36.70;25.70;;;;;;4981469;28;19937;-91
2022/07/30 14:10:43;;;;;;;;;;;36.70;25.70;;;;;;4996717;28;20001;-92
2022/07/30 14:13:09;;;;;;;;;;;36.60;25.80;;;;;;4980291;28;19929;-92
2022/07/30 14:15:34;;;;;;;;;;;36.60;25.80;;;;;;4995756;28;19929;-92
2022/07/30 14:18:00;;;;;;;;;;;36.60;25.90;;;;;;4995197;28;20263;-90